sensor_id;sensor_type;location;lat;lon;timestamp;temperature;humidity
20162;DHT22;51382;53.180;15.414;2023-12-20T00:05:35;7.00;99.90
20162;DHT22;51382;53.180;15.414;2023-12-20T00:20:44;7.00;99.90
20162;DHT22;51382;53.180;15.414;2023-12-20T00:35:51;7.10;99.90
20162;DHT22;51382;53.180;15.414;2023-12-20T00:51:04;7.00;99.90
20162;DHT22;51382;53.180;15.414;2023-12-20T01:06:11;7.00;99.90
20162;DHT22;51382;53.180;15.414;2023-12-20T01:21:19;6.90;99.90
20162;DHT22;51382;53.180;15.414;2023-12-20T01:36:29;6.80;99.90
20162;DHT22;51382;53.180;15.414;2023-12-20T01:51:40;6.70;99.90
20162;DHT22;51382;53.180;15.414;2023-12-20T02:06:55;6.60;99.90
20162;DHT22;51382;53.180;15.414;2023-12-20T02:22:07;6.30;99.90
20162;DHT22;51382;53.180;15.414;2023-12-20T02:37:19;6.30;99.90
20162;DHT22;51382;53.180;15.414;2023-12-20T02:52:31;6.10;99.90
20162;DHT22;51382;53.180;15.414;2023-12-20T03:07:43;5.90;99.90
20162;DHT22;51382;53.180;15.414;2023-12-20T03:22:54;5.60;99.90
20162;DHT22;51382;53.180;15.414;2023-12-20T03:38:06;5.50;99.90
20162;DHT22;51382;53.180;15.414;2023-12-20T03:53:12;5.20;99.90
20162;DHT22;51382;53.180;15.414;2023-12-20T04:08:24;5.00;99.90
20162;DHT22;51382;53.180;15.414;2023-12-20T04:23:35;5.10;99.90
20162;DHT22;51382;53.180;15.414;2023-12-20T04:38:42;5.10;99.90
20162;DHT22;51382;53.180;15.414;2023-12-20T04:53:49;5.10;99.90
20162;DHT22;51382;53.180;15.414;2023-12-20T05:09:02;4.80;99.90
20162;DHT22;51382;53.180;15.414;2023-12-20T05:24:14;4.70;99.90
20162;DHT22;51382;53.180;15.414;2023-12-20T05:39:21;4.50;99.90
20162;DHT22;51382;53.180;15.414;2023-12-20T05:54:27;4.10;99.90
20162;DHT22;51382;53.180;15.414;2023-12-20T06:09:39;4.00;99.90
20162;DHT22;51382;53.180;15.414;2023-12-20T06:24:46;4.10;99.90
20162;DHT22;51382;53.180;15.414;2023-12-20T06:39:58;4.40;99.90
20162;DHT22;51382;53.180;15.414;2023-12-20T06:55:06;4.20;99.90
20162;DHT22;51382;53.180;15.414;2023-12-20T07:10:13;4.00;99.90
20162;DHT22;51382;53.180;15.414;2023-12-20T07:25:25;4.20;99.90
20162;DHT22;51382;53.180;15.414;2023-12-20T07:40:37;4.50;99.90
20162;DHT22;51382;53.180;15.414;2023-12-20T07:55:49;5.00;99.90
20162;DHT22;51382;53.180;15.414;2023-12-20T08:11:00;5.20;99.90
20162;DHT22;51382;53.180;15.414;2023-12-20T08:26:13;5.20;99.90
20162;DHT22;51382;53.180;15.414;2023-12-20T08:41:59;5.20;99.90
20162;DHT22;51382;53.180;15.414;2023-12-20T08:57:12;5.10;99.90
20162;DHT22;51382;53.180;15.414;2023-12-20T09:12:24;5.10;99.90
20162;DHT22;51382;53.180;15.414;2023-12-20T09:27:35;4.90;99.90
20162;DHT22;51382;53.180;15.414;2023-12-20T09:42:48;5.00;99.90
20162;DHT22;51382;53.180;15.414;2023-12-20T09:58:05;5.00;99.90
20162;DHT22;51382;53.180;15.414;2023-12-20T10:13:17;5.10;99.90
20162;DHT22;51382;53.180;15.414;2023-12-20T10:28:29;5.40;99.90
20162;DHT22;51382;53.180;15.414;2023-12-20T10:43:39;5.50;99.90
20162;DHT22;51382;53.180;15.414;2023-12-20T10:58:53;5.80;99.90
20162;DHT22;51382;53.180;15.414;2023-12-20T11:14:07;6.00;99.90
20162;DHT22;51382;53.180;15.414;2023-12-20T11:29:32;5.70;99.90
20162;DHT22;51382;53.180;15.414;2023-12-20T11:44:57;5.70;99.90
20162;DHT22;51382;53.180;15.414;2023-12-20T12:00:05;5.80;99.90
20162;DHT22;51382;53.180;15.414;2023-12-20T12:15:15;6.00;99.90
20162;DHT22;51382;53.180;15.414;2023-12-20T12:30:29;6.10;99.90
20162;DHT22;51382;53.180;15.414;2023-12-20T12:45:37;6.30;99.90
20162;DHT22;51382;53.180;15.414;2023-12-20T13:00:55;6.10;99.90
20162;DHT22;51382;53.180;15.414;2023-12-20T13:16:07;5.80;99.90
20162;DHT22;51382;53.180;15.414;2023-12-20T13:31:19;5.40;99.90
20162;DHT22;51382;53.180;15.414;2023-12-20T13:46:29;5.20;99.90
20162;DHT22;51382;53.180;15.414;2023-12-20T14:01:36;5.20;99.90
20162;DHT22;51382;53.180;15.414;2023-12-20T14:16:48;5.20;99.90
20162;DHT22;51382;53.180;15.414;2023-12-20T14:32:00;5.10;99.90
20162;DHT22;51382;53.180;15.414;2023-12-20T14:47:13;5.10;99.90
20162;DHT22;51382;53.180;15.414;2023-12-20T15:02:24;5.10;99.90
20162;DHT22;51382;53.180;15.414;2023-12-20T15:17:37;4.80;99.90
20162;DHT22;51382;53.180;15.414;2023-12-20T15:32:49;4.70;99.90
20162;DHT22;51382;53.180;15.414;2023-12-20T15:48:00;4.60;99.90
20162;DHT22;51382;53.180;15.414;2023-12-20T16:03:12;4.80;99.90
20162;DHT22;51382;53.180;15.414;2023-12-20T16:18:24;4.10;99.90
20162;DHT22;51382;53.180;15.414;2023-12-20T16:33:36;4.00;99.90
20162;DHT22;51382;53.180;15.414;2023-12-20T16:48:47;3.60;99.90
20162;DHT22;51382;53.180;15.414;2023-12-20T17:03:59;3.80;99.90
20162;DHT22;51382;53.180;15.414;2023-12-20T17:19:11;4.00;99.90
20162;DHT22;51382;53.180;15.414;2023-12-20T17:34:23;3.90;99.90
20162;DHT22;51382;53.180;15.414;2023-12-20T17:49:34;4.10;99.90
20162;DHT22;51382;53.180;15.414;2023-12-20T18:04:41;3.90;99.90
20162;DHT22;51382;53.180;15.414;2023-12-20T18:19:53;3.50;99.90
20162;DHT22;51382;53.180;15.414;2023-12-20T18:35:04;3.50;99.90
20162;DHT22;51382;53.180;15.414;2023-12-20T18:50:16;3.90;99.90
20162;DHT22;51382;53.180;15.414;2023-12-20T19:05:28;4.20;99.90
20162;DHT22;51382;53.180;15.414;2023-12-20T19:20:40;3.90;99.90
20162;DHT22;51382;53.180;15.414;2023-12-20T19:35:51;4.10;99.90
20162;DHT22;51382;53.180;15.414;2023-12-20T19:51:03;4.30;99.90
20162;DHT22;51382;53.180;15.414;2023-12-20T20:06:16;4.30;99.90
20162;DHT22;51382;53.180;15.414;2023-12-20T20:21:26;4.50;99.90
20162;DHT22;51382;53.180;15.414;2023-12-20T20:36:38;4.60;99.90
20162;DHT22;51382;53.180;15.414;2023-12-20T20:51:53;4.70;99.90
20162;DHT22;51382;53.180;15.414;2023-12-20T21:07:05;4.70;99.90
20162;DHT22;51382;53.180;15.414;2023-12-20T21:22:17;4.60;99.90
20162;DHT22;51382;53.180;15.414;2023-12-20T21:37:32;4.40;99.90
20162;DHT22;51382;53.180;15.414;2023-12-20T21:52:48;4.20;99.90
20162;DHT22;51382;53.180;15.414;2023-12-20T22:07:59;4.30;99.90
20162;DHT22;51382;53.180;15.414;2023-12-20T22:23:16;4.30;99.90
20162;DHT22;51382;53.180;15.414;2023-12-20T22:38:28;4.50;99.90
20162;DHT22;51382;53.180;15.414;2023-12-20T22:53:47;4.70;99.90
20162;DHT22;51382;53.180;15.414;2023-12-20T23:09:02;4.70;99.90
20162;DHT22;51382;53.180;15.414;2023-12-20T23:24:16;4.50;99.90
20162;DHT22;51382;53.180;15.414;2023-12-20T23:39:23;4.60;99.90
20162;DHT22;51382;53.180;15.414;2023-12-20T23:54:36;4.70;99.90
